Time;durP1;ratioP1;P1;durP2;ratioP2;P2;SDS_P1;SDS_P2;PMS_P1;PMS_P2;Temp;Humidity;BMP_temperature;BMP_pressure;BME280_temperature;BME280_humidity;BME280_pressure;Samples;Min_cycle;Max_cycle;Signal;HPM_P1;HPM_P2
2021/10/05 00:00:37;;;;;;;3.43;3.10;;;;;;;;;;5072596;28;20577;-80
2021/10/05 00:03:05;;;;;;;4.07;2.60;;;;;;;;;;5072637;28;20204;-80
2021/10/05 00:05:34;;;;;;;2.43;2.23;;;;;;;;;;5071277;28;20197;-81
2021/10/05 00:08:01;;;;;;;4.57;2.20;;;;;;;;;;5072429;28;20207;-81
2021/10/05 00:10:28;;;;;;;4.27;2.80;;;;;;;;;;5072094;28;20669;-80
2021/10/05 00:12:55;;;;;;;5.67;2.70;;;;;;;;;;5072233;28;20689;-80
2021/10/05 00:15:23;;;;;;;4.07;3.07;;;;;;;;;;5072326;28;20303;-80
2021/10/05 00:17:50;;;;;;;5.13;2.53;;;;;;;;;;5072333;28;20207;-80
2021/10/05 00:20:17;;;;;;;3.60;2.50;;;;;;;;;;5071964;28;20204;-80
2021/10/05 00:22:46;;;;;;;2.93;2.73;;;;;;;;;;5071983;28;20695;-80
2021/10/05 00:25:13;;;;;;;3.47;2.97;;;;;;;;;;5072013;28;20193;-80
2021/10/05 00:27:41;;;;;;;2.80;2.60;;;;;;;;;;5072234;28;20214;-80
2021/10/05 00:30:09;;;;;;;3.23;2.53;;;;;;;;;;5072237;28;20205;-80
2021/10/05 00:32:36;;;;;;;3.30;2.43;;;;;;;;;;5072400;28;20220;-80
2021/10/05 00:35:03;;;;;;;3.57;2.33;;;;;;;;;;5071676;28;20224;-80
2021/10/05 00:37:30;;;;;;;4.37;2.40;;;;;;;;;;5071990;28;20203;-80
2021/10/05 00:39:59;;;;;;;3.83;2.33;;;;;;;;;;5071932;28;20204;-80
2021/10/05 00:42:27;;;;;;;3.27;2.93;;;;;;;;;;5072042;28;20233;-80
2021/10/05 00:44:54;;;;;;;5.83;2.70;;;;;;;;;;5071575;28;20181;-80
2021/10/05 00:47:21;;;;;;;4.80;2.60;;;;;;;;;;5071815;28;20243;-81
2021/10/05 00:49:49;;;;;;;4.63;3.23;;;;;;;;;;5071805;28;20729;-81
2021/10/05 00:52:17;;;;;;;3.17;2.70;;;;;;;;;;5071734;28;20296;-80
2021/10/05 00:54:45;;;;;;;3.17;2.40;;;;;;;;;;5071483;28;20239;-80
2021/10/05 00:57:14;;;;;;;2.57;2.37;;;;;;;;;;5072125;28;20581;-80
2021/10/05 00:59:42;;;;;;;7.67;3.00;;;;;;;;;;5071512;28;20204;-80
2021/10/05 01:02:12;;;;;;;7.10;3.07;;;;;;;;;;5071505;28;20681;-80
2021/10/05 01:04:40;;;;;;;3.07;2.70;;;;;;;;;;5071847;28;20197;-80
2021/10/05 01:07:09;;;;;;;2.97;2.60;;;;;;;;;;5072005;28;20200;-81
2021/10/05 01:09:37;;;;;;;3.10;2.90;;;;;;;;;;5071626;28;20197;-81
2021/10/05 01:12:06;;;;;;;4.43;2.93;;;;;;;;;;5071992;28;20683;-80
2021/10/05 01:14:35;;;;;;;4.10;3.37;;;;;;;;;;5071254;28;20197;-80
2021/10/05 01:17:03;;;;;;;3.63;2.63;;;;;;;;;;5073295;28;20313;-80
2021/10/05 01:19:30;;;;;;;4.27;2.40;;;;;;;;;;5075897;28;20196;-80
2021/10/05 01:22:00;;;;;;;3.37;2.90;;;;;;;;;;5075532;28;20201;-81
2021/10/05 01:24:27;;;;;;;3.17;2.97;;;;;;;;;;5075218;28;20211;-80
2021/10/05 01:26:55;;;;;;;3.67;2.60;;;;;;;;;;5075471;28;20197;-80
2021/10/05 01:29:25;;;;;;;3.83;3.37;;;;;;;;;;5075360;28;20207;-80
2021/10/05 01:31:54;;;;;;;3.27;2.87;;;;;;;;;;5075608;28;20201;-80
2021/10/05 01:34:22;;;;;;;4.27;2.83;;;;;;;;;;5075210;28;20291;-81
2021/10/05 01:36:50;;;;;;;3.60;3.30;;;;;;;;;;5075099;28;20727;-80
2021/10/05 01:39:26;;;;;;;7.63;2.97;;;;;;;;;;5075054;28;20205;-80
2021/10/05 01:41:55;;;;;;;4.87;3.30;;;;;;;;;;5075288;28;20280;-80
2021/10/05 01:44:22;;;;;;;11.23;3.43;;;;;;;;;;5074655;28;20243;-80
2021/10/05 01:46:50;;;;;;;4.57;3.30;;;;;;;;;;5074942;28;20193;-80
2021/10/05 01:49:18;;;;;;;3.53;3.23;;;;;;;;;;5074820;28;20197;-79
2021/10/05 01:51:46;;;;;;;2.93;2.73;;;;;;;;;;5075370;28;20197;-80
2021/10/05 01:54:14;;;;;;;5.07;3.43;;;;;;;;;;5074768;28;20276;-80
2021/10/05 01:56:43;;;;;;;3.60;3.30;;;;;;;;;;5074633;28;20257;-80
2021/10/05 01:59:10;;;;;;;3.93;3.20;;;;;;;;;;5075027;28;20296;-80
2021/10/05 02:01:38;;;;;;;4.23;3.83;;;;;;;;;;5074942;28;20237;-80
2021/10/05 02:04:06;;;;;;;5.17;2.73;;;;;;;;;;5074735;28;20209;-80
2021/10/05 02:06:33;;;;;;;8.70;3.50;;;;;;;;;;5075111;28;20192;-80
2021/10/05 02:09:00;;;;;;;5.07;3.63;;;;;;;;;;5074545;28;20200;-80
2021/10/05 02:11:27;;;;;;;5.37;3.37;;;;;;;;;;5074705;28;20200;-80
2021/10/05 02:13:56;;;;;;;4.87;3.27;;;;;;;;;;5074482;28;20198;-80
2021/10/05 02:16:23;;;;;;;14.40;8.87;;;;;;;;;;5074464;28;20225;-80
2021/10/05 02:18:50;;;;;;;117.27;56.97;;;;;;;;;;5074471;28;20197;-80
2021/10/05 02:21:18;;;;;;;113.17;49.33;;;;;;;;;;5074387;28;20287;-80
2021/10/05 02:26:30;;;;;;;52.93;24.83;;;;;;;;;;5074254;28;20562;-81
2021/10/05 02:28:59;;;;;;;48.23;22.70;;;;;;;;;;5083982;28;20332;-80
2021/10/05 02:31:26;;;;;;;29.13;14.60;;;;;;;;;;5094527;28;20188;-79
2021/10/05 02:33:54;;;;;;;17.13;8.10;;;;;;;;;;5094391;28;20200;-79
2021/10/05 02:36:21;;;;;;;7.27;5.13;;;;;;;;;;5094525;28;20307;-79
2021/10/05 02:38:48;;;;;;;5.67;4.30;;;;;;;;;;5093660;28;20227;-79
2021/10/05 02:41:15;;;;;;;5.73;4.20;;;;;;;;;;5094001;28;20192;-79
2021/10/05 02:43:42;;;;;;;4.93;3.93;;;;;;;;;;5093895;28;20716;-80
2021/10/05 02:46:11;;;;;;;4.00;3.20;;;;;;;;;;5093941;28;20199;-80
2021/10/05 02:48:39;;;;;;;5.27;3.93;;;;;;;;;;5093967;28;20204;-80
2021/10/05 02:51:06;;;;;;;4.47;3.20;;;;;;;;;;5093945;28;20253;-80
2021/10/05 02:53:33;;;;;;;4.43;3.43;;;;;;;;;;5093753;28;20192;-80
2021/10/05 02:56:00;;;;;;;6.27;3.70;;;;;;;;;;5093933;28;20570;-80
2021/10/05 02:58:27;;;;;;;6.40;3.20;;;;;;;;;;5094181;28;20200;-80
2021/10/05 03:00:54;;;;;;;4.53;4.13;;;;;;;;;;5093790;28;20689;-80
2021/10/05 03:03:23;;;;;;;3.77;3.20;;;;;;;;;;5093996;28;20610;-80
2021/10/05 03:05:50;;;;;;;4.57;3.50;;;;;;;;;;5093358;28;20199;-80
2021/10/05 03:08:17;;;;;;;4.10;3.20;;;;;;;;;;5093688;28;20200;-80
2021/10/05 03:10:45;;;;;;;3.87;3.53;;;;;;;;;;5093797;28;20223;-80
2021/10/05 03:13:12;;;;;;;3.67;3.30;;;;;;;;;;5093773;28;20607;-80
2021/10/05 03:15:39;;;;;;;5.20;3.60;;;;;;;;;;5093164;28;20200;-79
2021/10/05 03:18:06;;;;;;;3.80;3.40;;;;;;;;;;5093815;28;20298;-80
2021/10/05 03:20:35;;;;;;;5.30;4.00;;;;;;;;;;5089451;28;20199;-80
2021/10/05 03:23:02;;;;;;;6.40;3.90;;;;;;;;;;5085216;28;20203;-79
2021/10/05 03:25:29;;;;;;;4.57;3.23;;;;;;;;;;5090580;28;20278;-79
2021/10/05 03:27:59;;;;;;;4.07;3.50;;;;;;;;;;5087804;28;20285;-79
2021/10/05 03:30:27;;;;;;;5.60;4.47;;;;;;;;;;5087214;28;20201;-79
2021/10/05 03:32:54;;;;;;;3.83;3.47;;;;;;;;;;5092407;28;20241;-79
2021/10/05 03:35:21;;;;;;;5.60;3.90;;;;;;;;;;5092061;28;20579;-79
2021/10/05 03:37:50;;;;;;;3.80;3.50;;;;;;;;;;5091805;28;20704;-79
2021/10/05 03:40:17;;;;;;;6.37;3.83;;;;;;;;;;5092131;28;20223;-79
2021/10/05 03:42:44;;;;;;;3.90;3.50;;;;;;;;;;5091799;28;20234;-80
2021/10/05 03:45:12;;;;;;;4.23;3.83;;;;;;;;;;5092046;28;20688;-80
2021/10/05 03:47:39;;;;;;;5.97;3.43;;;;;;;;;;5092025;28;20203;-79
2021/10/05 03:50:07;;;;;;;4.50;3.97;;;;;;;;;;5091243;28;20232;-79
2021/10/05 03:52:34;;;;;;;4.53;3.97;;;;;;;;;;5091750;28;20202;-80
2021/10/05 03:55:03;;;;;;;4.27;3.87;;;;;;;;;;5091982;28;20227;-80
2021/10/05 03:57:30;;;;;;;4.73;4.10;;;;;;;;;;5091856;28;20228;-79
2021/10/05 03:59:57;;;;;;;4.00;3.70;;;;;;;;;;5091506;28;20200;-79
2021/10/05 04:02:25;;;;;;;10.10;4.53;;;;;;;;;;5079791;28;20212;-79
2021/10/05 04:04:52;;;;;;;10.50;5.97;;;;;;;;;;5070961;28;20200;-79
2021/10/05 04:07:19;;;;;;;5.33;4.47;;;;;;;;;;5071354;28;20204;-80
2021/10/05 04:09:46;;;;;;;5.00;3.90;;;;;;;;;;5070872;28;20193;-79
2021/10/05 04:12:15;;;;;;;4.70;4.13;;;;;;;;;;5071436;28;20224;-79
2021/10/05 04:14:44;;;;;;;4.67;4.30;;;;;;;;;;5085730;28;20197;-79
2021/10/05 04:17:11;;;;;;;6.70;4.90;;;;;;;;;;5089090;28;20219;-79
2021/10/05 04:19:39;;;;;;;7.93;5.37;;;;;;;;;;5091153;28;20196;-79
2021/10/05 04:22:06;;;;;;;5.30;4.50;;;;;;;;;;5091496;28;20200;-80
2021/10/05 04:24:33;;;;;;;8.17;5.30;;;;;;;;;;5088865;28;20207;-79
2021/10/05 04:27:00;;;;;;;9.03;5.13;;;;;;;;;;5079806;28;20219;-79
2021/10/05 04:29:29;;;;;;;6.53;5.30;;;;;;;;;;5088366;28;20200;-79
2021/10/05 04:31:56;;;;;;;8.77;4.30;;;;;;;;;;5091153;28;20199;-79
2021/10/05 04:34:23;;;;;;;7.97;4.60;;;;;;;;;;5091709;28;20200;-80
2021/10/05 04:36:50;;;;;;;4.77;4.40;;;;;;;;;;5092055;28;20722;-80
2021/10/05 04:39:17;;;;;;;4.73;3.90;;;;;;;;;;5091777;28;20207;-80
2021/10/05 04:41:45;;;;;;;5.03;4.60;;;;;;;;;;5092259;28;20690;-80
2021/10/05 04:44:12;;;;;;;7.67;5.50;;;;;;;;;;5091570;28;20319;-80
2021/10/05 04:46:41;;;;;;;7.07;5.57;;;;;;;;;;5092202;28;20196;-79
2021/10/05 04:49:08;;;;;;;6.00;5.17;;;;;;;;;;5091972;28;20207;-79
2021/10/05 04:51:35;;;;;;;10.83;8.17;;;;;;;;;;5091657;28;20575;-80
2021/10/05 04:54:02;;;;;;;9.47;7.23;;;;;;;;;;5091908;28;20687;-80
2021/10/05 04:56:29;;;;;;;12.60;11.33;;;;;;;;;;5091678;28;20227;-79
2021/10/05 04:58:56;;;;;;;7.57;6.57;;;;;;;;;;5092112;28;20196;-79
2021/10/05 05:01:24;;;;;;;7.30;6.23;;;;;;;;;;5092012;28;20192;-79
2021/10/05 05:03:52;;;;;;;8.00;7.17;;;;;;;;;;5091827;28;20212;-80
2021/10/05 05:06:19;;;;;;;23.67;8.50;;;;;;;;;;5091671;28;20196;-80
2021/10/05 05:08:46;;;;;;;7.20;6.20;;;;;;;;;;5091819;28;20673;-79
2021/10/05 05:11:14;;;;;;;10.47;8.10;;;;;;;;;;5091858;28;20196;-80
2021/10/05 05:13:41;;;;;;;12.73;10.47;;;;;;;;;;5091843;28;20200;-80
2021/10/05 05:16:08;;;;;;;12.43;11.13;;;;;;;;;;5091389;28;20206;-80
2021/10/05 05:18:35;;;;;;;16.37;11.20;;;;;;;;;;5091866;28;20197;-80
2021/10/05 05:21:04;;;;;;;11.97;10.87;;;;;;;;;;5091609;28;20574;-80
2021/10/05 05:23:31;;;;;;;11.73;9.23;;;;;;;;;;5092064;28;20200;-80
2021/10/05 05:25:58;;;;;;;12.27;9.37;;;;;;;;;;5091460;28;20193;-80
2021/10/05 05:28:26;;;;;;;9.30;7.37;;;;;;;;;;5091744;28;20188;-79
2021/10/05 05:30:53;;;;;;;11.37;7.07;;;;;;;;;;5091582;28;20206;-80
2021/10/05 05:33:20;;;;;;;9.03;8.13;;;;;;;;;;5091659;28;20196;-80
2021/10/05 05:35:48;;;;;;;17.70;9.47;;;;;;;;;;5091455;28;20196;-80
2021/10/05 05:38:17;;;;;;;12.30;7.83;;;;;;;;;;5091941;28;20284;-80
2021/10/05 05:40:44;;;;;;;12.57;8.73;;;;;;;;;;5091774;28;20204;-80
2021/10/05 05:43:11;;;;;;;23.40;17.47;;;;;;;;;;5091341;28;20239;-80
2021/10/05 05:45:38;;;;;;;26.13;20.07;;;;;;;;;;5091422;28;20235;-80
2021/10/05 05:48:06;;;;;;;17.03;11.70;;;;;;;;;;5091972;28;20279;-80
2021/10/05 05:50:33;;;;;;;15.97;9.27;;;;;;;;;;5091187;28;20240;-79
2021/10/05 05:53:00;;;;;;;12.87;8.63;;;;;;;;;;5091995;28;20206;-79
2021/10/05 05:55:29;;;;;;;18.50;8.87;;;;;;;;;;5091436;28;20203;-79
2021/10/05 05:57:56;;;;;;;19.60;6.87;;;;;;;;;;5091319;28;20224;-80
2021/10/05 06:00:24;;;;;;;14.50;6.40;;;;;;;;;;5091397;28;20203;-79
2021/10/05 06:02:51;;;;;;;14.00;5.43;;;;;;;;;;5091155;28;20198;-79
2021/10/05 06:05:18;;;;;;;13.23;6.07;;;;;;;;;;5094938;28;20192;-80
2021/10/05 06:07:46;;;;;;;13.40;5.73;;;;;;;;;;5095198;28;20195;-79
2021/10/05 06:10:14;;;;;;;8.47;5.37;;;;;;;;;;5094818;28;20200;-79
2021/10/05 06:12:42;;;;;;;10.90;6.87;;;;;;;;;;5095131;28;20618;-79
2021/10/05 06:15:11;;;;;;;7.07;4.50;;;;;;;;;;5094789;28;20201;-80
2021/10/05 06:17:41;;;;;;;6.60;4.73;;;;;;;;;;5094873;28;20311;-79
2021/10/05 06:20:10;;;;;;;11.53;5.10;;;;;;;;;;5094627;28;20185;-79
2021/10/05 06:22:37;;;;;;;5.67;4.87;;;;;;;;;;5094839;28;20196;-80
2021/10/05 06:25:05;;;;;;;6.30;5.03;;;;;;;;;;5094458;28;20206;-79
2021/10/05 06:27:32;;;;;;;12.50;4.67;;;;;;;;;;5095073;28;20196;-79
2021/10/05 06:30:01;;;;;;;8.73;5.10;;;;;;;;;;5094801;28;20564;-79
2021/10/05 06:32:28;;;;;;;9.53;3.93;;;;;;;;;;5093516;28;20189;-79
2021/10/05 06:34:55;;;;;;;6.67;4.17;;;;;;;;;;5094063;28;20192;-79
2021/10/05 06:37:22;;;;;;;4.37;3.93;;;;;;;;;;5094510;28;20722;-80
2021/10/05 06:39:50;;;;;;;5.93;4.10;;;;;;;;;;5094251;28;20577;-79
2021/10/05 06:42:17;;;;;;;4.13;3.73;;;;;;;;;;5094192;28;20214;-79
2021/10/05 06:44:44;;;;;;;10.03;5.27;;;;;;;;;;5094280;28;20215;-79
2021/10/05 06:47:13;;;;;;;5.70;5.20;;;;;;;;;;5094273;28;20284;-79
2021/10/05 06:49:40;;;;;;;4.30;3.90;;;;;;;;;;5094116;28;20204;-79
2021/10/05 06:52:08;;;;;;;4.70;4.33;;;;;;;;;;5094248;28;20287;-79
2021/10/05 06:54:35;;;;;;;6.70;4.00;;;;;;;;;;5094046;28;20579;-79
2021/10/05 06:57:02;;;;;;;5.17;4.70;;;;;;;;;;5093815;28;20726;-79
2021/10/05 06:59:29;;;;;;;10.00;5.30;;;;;;;;;;5093911;28;20195;-79
2021/10/05 07:01:56;;;;;;;6.77;5.23;;;;;;;;;;5094370;28;20204;-79
2021/10/05 07:04:25;;;;;;;9.57;4.33;;;;;;;;;;5093799;28;20199;-79
2021/10/05 07:06:52;;;;;;;11.03;4.47;;;;;;;;;;5093796;28;20680;-79
2021/10/05 07:09:19;;;;;;;4.73;4.23;;;;;;;;;;5093754;28;20568;-79
2021/10/05 07:11:48;;;;;;;8.27;4.50;;;;;;;;;;5093943;28;20242;-79
2021/10/05 07:14:15;;;;;;;8.87;4.03;;;;;;;;;;5093243;28;20207;-79
2021/10/05 07:16:42;;;;;;;6.57;4.57;;;;;;;;;;5093480;28;20200;-79
2021/10/05 07:19:10;;;;;;;12.53;4.23;;;;;;;;;;5093504;28;20742;-79
2021/10/05 07:21:38;;;;;;;4.97;3.30;;;;;;;;;;5094022;28;20204;-79
2021/10/05 07:24:06;;;;;;;6.67;3.97;;;;;;;;;;5093397;28;20196;-79
2021/10/05 07:26:33;;;;;;;15.47;4.77;;;;;;;;;;5093675;28;20200;-79
2021/10/05 07:29:00;;;;;;;8.93;4.30;;;;;;;;;;5093362;28;20200;-79
2021/10/05 07:31:29;;;;;;;12.73;4.93;;;;;;;;;;5093874;28;20196;-79
2021/10/05 07:33:57;;;;;;;11.17;4.90;;;;;;;;;;5093334;28;20664;-80
2021/10/05 07:36:24;;;;;;;8.83;5.43;;;;;;;;;;5093345;28;20224;-80
2021/10/05 07:38:52;;;;;;;12.17;4.60;;;;;;;;;;5093252;28;20220;-80
2021/10/05 07:41:20;;;;;;;12.77;5.17;;;;;;;;;;5093225;28;20664;-80
2021/10/05 07:43:47;;;;;;;8.33;4.00;;;;;;;;;;5093004;28;20317;-80
2021/10/05 07:46:16;;;;;;;5.90;3.60;;;;;;;;;;5093207;28;20196;-80
2021/10/05 07:48:44;;;;;;;7.50;4.60;;;;;;;;;;5093446;28;20273;-79
2021/10/05 07:51:11;;;;;;;8.00;3.77;;;;;;;;;;5093000;28;20760;-79
2021/10/05 07:53:38;;;;;;;3.93;3.60;;;;;;;;;;5093313;28;20239;-79
2021/10/05 07:56:08;;;;;;;3.43;3.13;;;;;;;;;;5093269;28;20198;-79
2021/10/05 07:58:36;;;;;;;5.50;3.30;;;;;;;;;;5092983;28;20220;-80
2021/10/05 08:01:03;;;;;;;5.20;3.67;;;;;;;;;;5092710;28;20631;-80
2021/10/05 08:03:30;;;;;;;3.93;3.63;;;;;;;;;;5093225;28;20193;-79
2021/10/05 08:05:58;;;;;;;5.57;3.10;;;;;;;;;;5092588;28;20201;-80
2021/10/05 08:08:25;;;;;;;4.33;3.77;;;;;;;;;;5092767;28;20204;-80
2021/10/05 08:10:52;;;;;;;6.40;5.93;;;;;;;;;;5092859;28;20197;-80
2021/10/05 08:13:21;;;;;;;6.17;3.97;;;;;;;;;;5092723;28;20289;-79
2021/10/05 08:15:48;;;;;;;6.07;4.17;;;;;;;;;;5092521;28;20203;-80
2021/10/05 08:18:15;;;;;;;3.60;3.30;;;;;;;;;;5092678;28;20221;-80
2021/10/05 08:20:43;;;;;;;6.53;4.67;;;;;;;;;;5092396;28;20645;-79
2021/10/05 08:23:10;;;;;;;7.13;3.70;;;;;;;;;;5092475;28;20581;-80
2021/10/05 08:25:37;;;;;;;4.33;3.93;;;;;;;;;;5091994;28;20222;-80
2021/10/05 08:28:05;;;;;;;4.27;3.37;;;;;;;;;;5091876;28;20210;-80
2021/10/05 08:30:35;;;;;;;4.90;3.90;;;;;;;;;;5092299;28;20206;-80
2021/10/05 08:33:02;;;;;;;9.10;5.67;;;;;;;;;;5092412;28;20213;-80
2021/10/05 08:35:29;;;;;;;8.63;3.60;;;;;;;;;;5092244;28;20197;-80
2021/10/05 08:37:57;;;;;;;8.20;3.77;;;;;;;;;;5092033;28;20225;-80
2021/10/05 08:40:25;;;;;;;6.67;3.67;;;;;;;;;;5092159;28;20197;-80
2021/10/05 08:42:52;;;;;;;5.10;3.40;;;;;;;;;;5092013;28;20229;-80
2021/10/05 08:45:21;;;;;;;4.77;2.97;;;;;;;;;;5092149;28;20266;-80
2021/10/05 08:47:51;;;;;;;5.47;3.77;;;;;;;;;;5092179;28;20669;-80
2021/10/05 08:50:18;;;;;;;8.57;3.93;;;;;;;;;;5091852;28;20699;-80
2021/10/05 08:52:46;;;;;;;14.30;6.50;;;;;;;;;;5092141;28;20197;-80
2021/10/05 08:55:13;;;;;;;10.47;4.43;;;;;;;;;;5092253;28;20202;-80
2021/10/05 08:57:41;;;;;;;8.20;5.67;;;;;;;;;;5092049;28;20316;-80
2021/10/05 09:00:09;;;;;;;13.30;8.67;;;;;;;;;;5091655;28;20199;-80
2021/10/05 09:02:46;;;;;;;10.23;5.43;;;;;;;;;;5092101;28;20193;-80
2021/10/05 09:05:15;;;;;;;5.50;3.63;;;;;;;;;;5091907;28;20209;-80
2021/10/05 09:07:45;;;;;;;6.63;5.93;;;;;;;;;;5091999;28;20196;-80
2021/10/05 09:10:13;;;;;;;7.03;3.60;;;;;;;;;;5091781;28;20565;-80
2021/10/05 09:12:41;;;;;;;6.37;4.27;;;;;;;;;;5091780;28;20583;-80
2021/10/05 09:15:11;;;;;;;8.90;3.30;;;;;;;;;;5092022;28;20189;-80
2021/10/05 09:17:38;;;;;;;6.53;3.37;;;;;;;;;;5092215;28;20233;-80
2021/10/05 09:20:18;;;;;;;3.10;2.80;;;;;;;;;;5091751;28;20200;-80
2021/10/05 09:22:57;;;;;;;5.30;3.80;;;;;;;;;;5091891;28;20271;-80
2021/10/05 09:25:28;;;;;;;3.93;3.53;;;;;;;;;;5091801;28;20280;-80
2021/10/05 09:27:55;;;;;;;7.30;3.97;;;;;;;;;;5091859;28;20192;-80
2021/10/05 09:30:23;;;;;;;3.80;3.37;;;;;;;;;;5091736;28;20205;-80
2021/10/05 09:33:04;;;;;;;7.70;3.50;;;;;;;;;;5091849;28;20198;-80
2021/10/05 09:35:43;;;;;;;5.77;4.10;;;;;;;;;;5091667;28;20192;-80
2021/10/05 09:38:14;;;;;;;5.83;3.53;;;;;;;;;;5093984;28;20582;-80
2021/10/05 09:40:41;;;;;;;4.87;3.40;;;;;;;;;;5095904;28;20197;-80
2021/10/05 09:43:19;;;;;;;3.70;3.40;;;;;;;;;;5095265;28;20235;-80
2021/10/05 09:45:47;;;;;;;8.97;4.87;;;;;;;;;;5095792;28;20189;-80
2021/10/05 09:48:14;;;;;;;5.33;3.83;;;;;;;;;;5095469;28;20200;-80
2021/10/05 09:50:43;;;;;;;5.00;4.10;;;;;;;;;;5095399;28;20583;-80
2021/10/05 09:53:12;;;;;;;5.83;3.30;;;;;;;;;;5095443;28;20203;-81
2021/10/05 09:55:41;;;;;;;6.30;3.43;;;;;;;;;;5095523;28;20793;-80
2021/10/05 09:58:09;;;;;;;7.10;3.27;;;;;;;;;;5095236;28;20234;-80
2021/10/05 10:00:40;;;;;;;6.13;3.50;;;;;;;;;;5095040;28;20735;-80
2021/10/05 10:03:07;;;;;;;4.77;3.10;;;;;;;;;;5095290;28;20275;-80
2021/10/05 10:05:37;;;;;;;7.03;3.80;;;;;;;;;;5095338;28;20207;-80
2021/10/05 10:08:07;;;;;;;5.70;4.30;;;;;;;;;;5095394;28;20261;-80
2021/10/05 10:10:36;;;;;;;4.47;3.53;;;;;;;;;;5094710;28;20207;-80
2021/10/05 10:13:04;;;;;;;6.77;3.53;;;;;;;;;;5095055;28;20245;-80
2021/10/05 10:15:33;;;;;;;4.97;3.67;;;;;;;;;;5095151;28;20221;-80
2021/10/05 10:18:08;;;;;;;6.90;3.43;;;;;;;;;;5095220;28;20230;-80
2021/10/05 10:20:36;;;;;;;8.67;4.53;;;;;;;;;;5094564;28;20210;-80
2021/10/05 10:23:03;;;;;;;5.43;4.53;;;;;;;;;;5095032;28;20201;-80
2021/10/05 10:25:34;;;;;;;5.77;4.33;;;;;;;;;;5095012;28;20249;-81
2021/10/05 10:28:12;;;;;;;4.13;3.73;;;;;;;;;;5094866;28;20185;-80
2021/10/05 10:30:49;;;;;;;4.37;3.33;;;;;;;;;;5094372;28;20191;-81
2021/10/05 10:33:17;;;;;;;5.37;3.00;;;;;;;;;;5094721;28;20184;-81
2021/10/05 10:35:50;;;;;;;3.60;3.03;;;;;;;;;;5094461;28;20676;-80
2021/10/05 10:38:24;;;;;;;5.47;2.83;;;;;;;;;;5094541;28;20212;-80
2021/10/05 10:40:52;;;;;;;2.90;2.60;;;;;;;;;;5094740;28;20258;-80
2021/10/05 10:43:22;;;;;;;4.83;2.97;;;;;;;;;;5094332;28;20232;-81
2021/10/05 10:45:51;;;;;;;3.37;3.00;;;;;;;;;;5094226;28;20207;-81
2021/10/05 10:48:29;;;;;;;3.20;2.90;;;;;;;;;;5094497;28;20280;-80
2021/10/05 10:50:58;;;;;;;4.83;3.03;;;;;;;;;;5093788;28;20196;-80
2021/10/05 10:53:37;;;;;;;4.80;3.07;;;;;;;;;;5094295;28;20208;-81
2021/10/05 10:56:06;;;;;;;5.20;3.97;;;;;;;;;;5094451;28;20319;-81
2021/10/05 10:58:41;;;;;;;4.17;2.83;;;;;;;;;;5094158;28;20228;-81
2021/10/05 11:01:09;;;;;;;4.00;2.67;;;;;;;;;;5093864;28;20199;-81
2021/10/05 11:03:37;;;;;;;3.50;2.50;;;;;;;;;;5094356;28;20224;-81
2021/10/05 11:06:13;;;;;;;5.50;2.53;;;;;;;;;;5093951;28;20203;-81
2021/10/05 11:08:40;;;;;;;5.37;2.97;;;;;;;;;;5094038;28;20180;-80
2021/10/05 11:11:09;;;;;;;3.03;2.80;;;;;;;;;;5093728;28;20598;-81
2021/10/05 11:13:46;;;;;;;3.13;2.63;;;;;;;;;;5094254;28;20193;-81
2021/10/05 11:16:13;;;;;;;8.93;2.83;;;;;;;;;;5093839;28;20200;-81
2021/10/05 11:18:40;;;;;;;3.07;2.47;;;;;;;;;;5093762;28;20224;-80
2021/10/05 11:21:12;;;;;;;2.80;2.60;;;;;;;;;;5093539;28;20199;-81
2021/10/05 11:23:44;;;;;;;2.47;2.27;;;;;;;;;;5093832;28;20258;-81
2021/10/05 11:26:13;;;;;;;2.70;2.50;;;;;;;;;;5093574;28;20275;-81
2021/10/05 11:28:45;;;;;;;5.47;2.50;;;;;;;;;;5093585;28;20196;-81
2021/10/05 11:31:15;;;;;;;5.27;2.97;;;;;;;;;;5093485;28;20640;-81
2021/10/05 11:33:42;;;;;;;7.07;2.50;;;;;;;;;;5093459;28;20203;-81
2021/10/05 11:36:14;;;;;;;3.47;2.63;;;;;;;;;;5093524;28;20196;-81
2021/10/05 11:38:43;;;;;;;4.13;2.40;;;;;;;;;;5093705;28;20208;-81
2021/10/05 11:41:10;;;;;;;3.00;2.67;;;;;;;;;;5093338;28;20228;-81
2021/10/05 11:43:41;;;;;;;3.70;2.43;;;;;;;;;;5093129;28;20646;-81
2021/10/05 11:46:14;;;;;;;3.70;2.03;;;;;;;;;;5093411;28;20191;-81
2021/10/05 11:48:43;;;;;;;3.53;2.87;;;;;;;;;;5093295;28;20742;-81
2021/10/05 11:51:11;;;;;;;4.30;2.60;;;;;;;;;;5092962;28;20202;-81
2021/10/05 11:53:39;;;;;;;4.70;3.07;;;;;;;;;;5092824;28;20207;-81
2021/10/05 11:56:08;;;;;;;8.40;2.30;;;;;;;;;;5093199;28;20222;-81
2021/10/05 11:58:48;;;;;;;3.03;2.27;;;;;;;;;;5092995;28;20216;-81
2021/10/05 12:01:22;;;;;;;3.40;2.70;;;;;;;;;;5092261;28;20211;-81
2021/10/05 12:03:50;;;;;;;6.00;2.43;;;;;;;;;;5092929;28;20185;-81
2021/10/05 12:06:28;;;;;;;3.70;3.30;;;;;;;;;;5092732;28;20203;-81
2021/10/05 12:08:56;;;;;;;9.83;3.20;;;;;;;;;;5092734;28;20192;-81
2021/10/05 12:11:23;;;;;;;6.17;2.80;;;;;;;;;;5093070;28;20295;-81
2021/10/05 12:14:01;;;;;;;3.83;2.80;;;;;;;;;;5092436;28;20196;-81
2021/10/05 12:16:28;;;;;;;6.43;2.80;;;;;;;;;;5093023;28;20332;-82
2021/10/05 12:18:56;;;;;;;6.10;2.90;;;;;;;;;;5092444;28;20220;-81
2021/10/05 12:21:24;;;;;;;4.17;2.33;;;;;;;;;;5092621;28;20199;-81
2021/10/05 12:23:52;;;;;;;5.03;3.00;;;;;;;;;;5092475;28;20291;-81
2021/10/05 12:26:19;;;;;;;4.17;2.90;;;;;;;;;;5092312;28;20193;-81
2021/10/05 12:29:00;;;;;;;4.13;2.57;;;;;;;;;;5092461;28;20207;-82
2021/10/05 12:31:28;;;;;;;4.33;2.57;;;;;;;;;;5092488;28;20191;-81
2021/10/05 12:33:57;;;;;;;5.20;2.93;;;;;;;;;;5092418;28;20196;-81
2021/10/05 12:36:25;;;;;;;3.70;3.13;;;;;;;;;;5092556;28;20203;-81
2021/10/05 12:38:52;;;;;;;6.87;2.60;;;;;;;;;;5092178;28;20219;-81
2021/10/05 12:41:20;;;;;;;10.43;3.33;;;;;;;;;;5092285;28;20192;-81
2021/10/05 12:43:47;;;;;;;3.10;2.40;;;;;;;;;;5091870;28;20238;-81
2021/10/05 12:46:18;;;;;;;6.00;2.43;;;;;;;;;;5092450;28;20192;-82
2021/10/05 12:48:47;;;;;;;7.17;3.20;;;;;;;;;;5092574;28;20203;-82
2021/10/05 12:51:15;;;;;;;8.53;2.97;;;;;;;;;;5092465;28;20579;-81
2021/10/05 12:53:45;;;;;;;6.63;3.03;;;;;;;;;;5091927;28;20196;-82
2021/10/05 12:56:12;;;;;;;3.87;2.77;;;;;;;;;;5092029;28;20669;-81
2021/10/05 12:58:40;;;;;;;10.90;4.13;;;;;;;;;;5092361;28;20200;-81
2021/10/05 13:01:08;;;;;;;4.37;3.23;;;;;;;;;;5091913;28;20207;-82
2021/10/05 13:03:37;;;;;;;9.10;2.93;;;;;;;;;;5091835;28;20196;-82
2021/10/05 13:06:05;;;;;;;6.20;2.67;;;;;;;;;;5091952;28;20199;-81
2021/10/05 13:08:32;;;;;;;3.63;2.40;;;;;;;;;;5092334;28;20196;-81
2021/10/05 13:10:59;;;;;;;6.47;2.80;;;;;;;;;;5091793;28;20208;-81
2021/10/05 13:13:27;;;;;;;5.00;2.90;;;;;;;;;;5094602;28;20291;-82
2021/10/05 13:15:54;;;;;;;3.90;2.70;;;;;;;;;;5095994;28;20691;-81
2021/10/05 13:18:21;;;;;;;5.03;2.77;;;;;;;;;;5096143;28;20199;-81
2021/10/05 13:20:50;;;;;;;4.37;3.27;;;;;;;;;;5095879;28;20220;-82
2021/10/05 13:23:20;;;;;;;5.23;2.90;;;;;;;;;;5095848;28;20227;-82
2021/10/05 13:25:47;;;;;;;2.80;2.47;;;;;;;;;;5095768;28;20287;-82
2021/10/05 13:28:14;;;;;;;6.17;2.50;;;;;;;;;;5095927;28;20694;-81
2021/10/05 13:30:41;;;;;;;5.37;2.57;;;;;;;;;;5095698;28;20192;-81
2021/10/05 13:33:09;;;;;;;4.13;2.87;;;;;;;;;;5095900;28;20204;-82
2021/10/05 13:35:36;;;;;;;4.30;2.70;;;;;;;;;;5095671;28;20192;-81
2021/10/05 13:38:05;;;;;;;4.60;2.47;;;;;;;;;;5095793;28;20660;-81
2021/10/05 13:40:33;;;;;;;5.80;2.83;;;;;;;;;;5095493;28;20224;-82
2021/10/05 13:43:00;;;;;;;5.23;2.47;;;;;;;;;;5095269;28;20712;-81
2021/10/05 13:45:28;;;;;;;6.67;3.13;;;;;;;;;;5095659;28;20203;-81
2021/10/05 13:47:55;;;;;;;5.43;2.73;;;;;;;;;;5095625;28;20203;-82
2021/10/05 13:50:23;;;;;;;3.77;2.43;;;;;;;;;;5095381;28;20583;-81
2021/10/05 13:52:50;;;;;;;2.67;2.47;;;;;;;;;;5095497;28;20196;-82
2021/10/05 13:55:19;;;;;;;3.30;2.27;;;;;;;;;;5095497;28;20196;-81
2021/10/05 13:57:46;;;;;;;7.23;2.90;;;;;;;;;;5095415;28;20199;-82
2021/10/05 14:00:14;;;;;;;9.57;2.63;;;;;;;;;;5095095;28;20220;-81
2021/10/05 14:02:41;;;;;;;5.60;2.73;;;;;;;;;;5095310;28;20246;-81
2021/10/05 14:05:09;;;;;;;4.63;2.80;;;;;;;;;;5095317;28;20200;-80
2021/10/05 14:07:36;;;;;;;3.30;2.70;;;;;;;;;;5094979;28;20579;-81
2021/10/05 14:10:05;;;;;;;9.27;3.77;;;;;;;;;;5094918;28;20700;-81
2021/10/05 14:12:34;;;;;;;3.63;2.77;;;;;;;;;;5095705;28;20541;-81
2021/10/05 14:15:01;;;;;;;5.73;2.90;;;;;;;;;;5094820;28;20235;-81
2021/10/05 14:17:29;;;;;;;5.30;3.03;;;;;;;;;;5095014;28;20240;-82
2021/10/05 14:19:57;;;;;;;4.83;3.20;;;;;;;;;;5094228;28;20226;-81
2021/10/05 14:22:25;;;;;;;5.70;2.50;;;;;;;;;;5094881;28;20214;-81
2021/10/05 14:24:53;;;;;;;5.80;2.67;;;;;;;;;;5093846;28;20629;-81
2021/10/05 14:27:22;;;;;;;4.17;2.40;;;;;;;;;;5094769;28;20257;-81
2021/10/05 14:29:50;;;;;;;3.37;3.07;;;;;;;;;;5094638;28;20189;-81
2021/10/05 14:32:17;;;;;;;8.70;2.80;;;;;;;;;;5094760;28;20676;-81
2021/10/05 14:34:45;;;;;;;3.33;2.87;;;;;;;;;;5094501;28;20280;-81
2021/10/05 14:37:12;;;;;;;5.80;2.53;;;;;;;;;;5094613;28;20196;-81
2021/10/05 14:39:39;;;;;;;8.77;3.50;;;;;;;;;;5094125;28;20230;-81
2021/10/05 14:42:06;;;;;;;6.97;3.23;;;;;;;;;;5094881;28;20228;-81
2021/10/05 14:44:33;;;;;;;5.70;3.43;;;;;;;;;;5094296;28;20192;-80
2021/10/05 14:47:02;;;;;;;5.57;4.37;;;;;;;;;;5094456;28;20192;-81
2021/10/05 14:49:29;;;;;;;3.10;2.43;;;;;;;;;;5094005;28;20580;-81